Nerinx, Kentucky
Current Conditions -  °F | °C
As of 5:15 PM on Sunday 23 Nov 2014 (Local Time) from K6I2 Reporting Station
Light Rain Light Rain  
Wind Chill: 55°   Ceiling: 1500
Heat Index: 55°   Visibility: 1.7mi
Dew Point: 54°   Wind: 14mph
Humidity: 94%   Direction: 140°SE
Pressure: 29.5"   Gusts: 22mph
Location:  37.66°N, 85.4°W
Report Text: K6I2 232215Z AUTO 14012G19KT 1 3/4SM -RA SCT001 BKN015 OVC044 13/12 A2950 RMK AO2
Loading
Personal Weather Stations






























Interactive Weather Map New forecast layout! Learn more

10-Day Weather Forecast

Advertisements
Track Severe Weather on mobile